createdAt,value
2023-03-21T00:00:39.090Z,49.08
2023-03-21T00:03:05.595Z,52.33
2023-03-21T00:05:32.278Z,47.38
2023-03-21T00:08:01.041Z,45.85
2023-03-21T00:10:39.547Z,47.85
2023-03-21T00:13:07.176Z,45.00
2023-03-21T00:15:44.125Z,48.53
2023-03-21T00:18:15.939Z,42.55
2023-03-21T00:20:42.910Z,50.45
2023-03-21T00:23:09.522Z,42.50
2023-03-21T00:25:36.343Z,48.72
2023-03-21T00:28:08.213Z,42.17
2023-03-21T00:30:35.422Z,51.63
2023-03-21T00:33:12.121Z,45.67
2023-03-21T00:36:02.460Z,43.85
2023-03-21T00:38:31.520Z,45.22
2023-03-21T00:41:01.948Z,37.08
2023-03-21T00:43:31.234Z,37.53
2023-03-21T00:45:58.515Z,36.92
2023-03-21T00:48:25.910Z,38.00
2023-03-21T00:50:54.176Z,31.70
2023-03-21T00:53:21.238Z,38.55
2023-03-21T00:55:47.836Z,30.73
2023-03-21T00:58:14.389Z,38.13
2023-03-21T01:00:41.402Z,33.35
2023-03-21T01:03:23.332Z,29.33
2023-03-21T01:06:07.198Z,27.98
2023-03-21T01:08:51.028Z,39.88
2023-03-21T01:11:20.133Z,22.77
2023-03-21T01:13:53.732Z,30.40
2023-03-21T01:16:22.562Z,24.77
2023-03-21T01:18:49.159Z,23.27
2023-03-21T01:21:15.882Z,22.77
2023-03-21T01:23:43.036Z,25.30
2023-03-21T01:26:10.353Z,22.00
2023-03-21T01:28:37.546Z,25.88
2023-03-21T01:31:04.772Z,26.98
2023-03-21T01:33:31.663Z,34.40
2023-03-21T01:36:11.750Z,26.50
2023-03-21T01:38:39.052Z,29.80
2023-03-21T01:41:17.194Z,25.05
2023-03-21T01:43:46.024Z,25.80
2023-03-21T01:46:37.100Z,27.80
2023-03-21T01:49:20.477Z,30.33
2023-03-21T01:51:53.687Z,22.70
2023-03-21T01:54:31.750Z,30.40
2023-03-21T01:57:00.236Z,32.45
2023-03-21T01:59:28.918Z,29.60
2023-03-21T02:01:57.810Z,28.23
2023-03-21T02:04:28.190Z,28.83
2023-03-21T02:07:00.777Z,36.20
2023-03-21T02:09:29.194Z,25.77
2023-03-21T02:11:55.901Z,28.40
2023-03-21T02:14:29.066Z,28.23
2023-03-21T02:17:02.348Z,29.67
2023-03-21T02:19:52.703Z,27.70
2023-03-21T02:22:19.937Z,33.97
2023-03-21T02:24:54.632Z,30.73
2023-03-21T02:27:26.272Z,27.03
2023-03-21T02:30:30.359Z,35.85
2023-03-21T02:33:15.070Z,27.08
2023-03-21T02:36:05.608Z,27.73
2023-03-21T02:38:54.883Z,23.33
2023-03-21T02:41:29.875Z,24.17
2023-03-21T02:44:22.029Z,25.17
2023-03-21T02:47:07.191Z,20.73
2023-03-21T02:49:43.328Z,28.00
2023-03-21T02:52:18.827Z,26.85
2023-03-21T02:54:52.657Z,20.50
2023-03-21T02:57:19.649Z,18.63
2023-03-21T02:59:55.478Z,20.38
2023-03-21T03:02:25.214Z,28.70
2023-03-21T03:04:51.662Z,20.20
2023-03-21T03:07:28.625Z,19.58
2023-03-21T03:10:01.607Z,19.00
2023-03-21T03:12:33.444Z,18.55
2023-03-21T03:15:09.865Z,19.85
2023-03-21T03:17:39.377Z,17.00
2023-03-21T03:20:16.668Z,21.48
2023-03-21T03:22:49.137Z,19.48
2023-03-21T03:25:29.830Z,24.95
2023-03-21T03:28:07.624Z,18.17
2023-03-21T03:30:43.390Z,23.40
2023-03-21T03:33:17.190Z,18.17
2023-03-21T03:35:46.410Z,21.42
2023-03-21T03:38:14.704Z,19.20
2023-03-21T03:40:44.160Z,22.13
2023-03-21T03:43:13.947Z,20.70
2023-03-21T03:45:43.848Z,17.73
2023-03-21T03:48:13.431Z,31.33
2023-03-21T03:50:42.988Z,21.17
2023-03-21T03:53:20.253Z,20.25
2023-03-21T03:55:47.530Z,20.63
2023-03-21T03:58:23.599Z,23.27
2023-03-21T04:00:52.141Z,21.35
2023-03-21T04:03:18.783Z,18.85
2023-03-21T04:05:48.182Z,20.42
2023-03-21T04:08:15.426Z,19.73
2023-03-21T04:10:42.868Z,22.37
2023-03-21T04:13:09.761Z,17.10
2023-03-21T04:15:36.501Z,16.30
2023-03-21T04:18:03.089Z,18.02
2023-03-21T04:20:36.696Z,24.52
2023-03-21T04:23:04.276Z,18.47
2023-03-21T04:25:33.765Z,21.98
2023-03-21T04:28:00.953Z,17.50
2023-03-21T04:30:27.511Z,18.35
2023-03-21T04:33:01.146Z,18.23
2023-03-21T04:35:28.491Z,19.83
2023-03-21T04:37:55.341Z,14.70
2023-03-21T04:40:21.916Z,19.33
2023-03-21T04:42:48.857Z,23.30
2023-03-21T04:45:16.323Z,22.33
2023-03-21T04:47:43.153Z,19.03
2023-03-21T04:50:10.697Z,15.68
2023-03-21T04:52:37.129Z,17.20
2023-03-21T04:55:03.664Z,18.48
2023-03-21T04:57:30.186Z,20.20
2023-03-21T04:59:56.653Z,20.17
2023-03-21T05:02:23.143Z,17.77
2023-03-21T05:04:49.513Z,16.10
2023-03-21T05:07:16.100Z,21.10
2023-03-21T05:09:42.559Z,20.13
2023-03-21T05:12:09.051Z,18.50
2023-03-21T05:14:35.666Z,22.17
2023-03-21T05:17:05.363Z,20.05
2023-03-21T05:19:35.505Z,24.60
2023-03-21T05:22:04.743Z,25.30
2023-03-21T05:24:32.773Z,20.93
2023-03-21T05:27:02.533Z,18.90
2023-03-21T05:29:32.972Z,16.23
2023-03-21T05:32:00.318Z,16.10
2023-03-21T05:34:27.196Z,17.58
2023-03-21T05:36:53.907Z,19.52
2023-03-21T05:39:20.454Z,17.42
2023-03-21T05:41:46.886Z,18.27
2023-03-21T05:44:13.365Z,21.30
2023-03-21T05:46:39.835Z,15.88
2023-03-21T05:49:06.364Z,17.10
2023-03-21T05:51:32.904Z,18.80
2023-03-21T05:53:59.394Z,14.48
2023-03-21T05:56:25.988Z,17.30
2023-03-21T05:58:52.420Z,19.80
2023-03-21T06:01:19.209Z,20.98
2023-03-21T06:03:45.957Z,21.85
2023-03-21T06:06:12.404Z,20.98
2023-03-21T06:08:38.962Z,14.85
2023-03-21T06:11:06.098Z,12.93
2023-03-21T06:13:32.935Z,28.60
2023-03-21T06:15:59.484Z,18.05
2023-03-21T06:18:26.350Z,20.40
2023-03-21T06:20:52.889Z,17.80
2023-03-21T06:23:19.399Z,24.45
2023-03-21T06:25:45.956Z,18.20
2023-03-21T06:28:12.468Z,21.80
2023-03-21T06:30:38.955Z,20.30
2023-03-21T06:33:05.423Z,19.25
2023-03-21T06:35:31.904Z,19.52
2023-03-21T06:37:59.208Z,15.87
2023-03-21T06:40:25.805Z,25.13
2023-03-21T06:42:52.249Z,20.88
2023-03-21T06:45:18.741Z,25.80
2023-03-21T06:47:45.384Z,29.52
2023-03-21T06:50:12.124Z,20.17
2023-03-21T06:52:38.737Z,17.42
2023-03-21T06:55:05.377Z,25.63
2023-03-21T06:57:31.913Z,25.52
2023-03-21T06:59:58.446Z,17.90
2023-03-21T07:02:24.942Z,24.88
2023-03-21T07:04:51.354Z,16.08
2023-03-21T07:07:17.788Z,18.45
2023-03-21T07:09:44.317Z,24.13
2023-03-21T07:12:11.161Z,22.55
2023-03-21T07:14:37.703Z,17.80
2023-03-21T07:17:04.270Z,15.13
2023-03-21T07:19:30.939Z,24.52
2023-03-21T07:21:57.400Z,21.98
2023-03-21T07:24:23.824Z,21.10
2023-03-21T07:26:50.367Z,17.52
2023-03-21T07:29:17.655Z,21.52
2023-03-21T07:31:44.108Z,27.35
2023-03-21T07:34:10.769Z,23.83
2023-03-21T07:36:37.735Z,20.48
2023-03-21T07:39:04.653Z,21.67
2023-03-21T07:41:31.291Z,19.90
2023-03-21T07:43:57.947Z,17.40
2023-03-21T07:46:24.583Z,20.08
2023-03-21T07:48:51.207Z,26.27
2023-03-21T07:51:18.154Z,18.50
2023-03-21T07:53:48.570Z,25.77
2023-03-21T07:56:15.980Z,22.95
2023-03-21T07:58:42.488Z,26.33
2023-03-21T08:01:09.057Z,25.20
2023-03-21T08:03:35.574Z,25.87
2023-03-21T08:06:02.217Z,29.75
2023-03-21T08:08:28.763Z,23.05
2023-03-21T08:10:55.316Z,30.80
2023-03-21T08:13:21.826Z,27.90
2023-03-21T08:15:48.537Z,29.37
2023-03-21T08:18:15.058Z,30.77
2023-03-21T08:20:41.827Z,25.55
2023-03-21T08:23:08.670Z,26.70
2023-03-21T08:25:35.754Z,26.27
2023-03-21T08:28:02.324Z,23.50
2023-03-21T08:30:28.779Z,28.17
2023-03-21T08:33:00.923Z,24.33
2023-03-21T08:35:28.390Z,25.23
2023-03-21T08:37:54.913Z,22.95
2023-03-21T08:40:21.756Z,18.40
2023-03-21T08:42:48.427Z,26.38
2023-03-21T08:45:16.039Z,19.20
2023-03-21T08:47:43.052Z,18.85
2023-03-21T08:50:11.391Z,22.20
2023-03-21T08:52:37.999Z,17.00
2023-03-21T08:55:05.014Z,19.08
2023-03-21T08:57:31.818Z,23.05
2023-03-21T08:59:58.338Z,18.63
2023-03-21T09:02:24.791Z,17.70
2023-03-21T09:04:55.012Z,26.77
2023-03-21T09:07:22.334Z,21.75
2023-03-21T09:09:53.705Z,17.90
2023-03-21T09:12:29.459Z,16.40
2023-03-21T09:14:57.355Z,23.42
2023-03-21T09:17:23.985Z,20.17
2023-03-21T09:19:50.922Z,18.80
2023-03-21T09:22:18.077Z,22.02
2023-03-21T09:24:47.699Z,25.33
2023-03-21T09:27:15.815Z,20.45
2023-03-21T09:29:44.726Z,15.83
2023-03-21T09:32:12.169Z,18.75
2023-03-21T09:34:41.298Z,17.75
2023-03-21T09:37:13.418Z,18.42
2023-03-21T09:39:41.036Z,26.90
2023-03-21T09:42:15.994Z,22.50
2023-03-21T09:44:49.345Z,20.05
2023-03-21T09:47:19.782Z,19.90
2023-03-21T09:49:49.243Z,28.23
2023-03-21T09:52:19.701Z,22.98
2023-03-21T09:54:46.721Z,19.27
2023-03-21T09:57:27.286Z,22.27
2023-03-21T09:59:54.808Z,14.10
2023-03-21T10:02:37.706Z,17.23
2023-03-21T10:05:12.122Z,20.88
2023-03-21T10:07:42.464Z,17.63
2023-03-21T10:10:17.170Z,12.93
2023-03-21T10:12:44.491Z,19.35
2023-03-21T10:15:15.425Z,14.43
2023-03-21T10:17:51.209Z,22.15
2023-03-21T10:20:29.717Z,17.43
2023-03-21T10:22:56.862Z,16.65
2023-03-21T10:25:34.072Z,20.15
2023-03-21T10:28:01.918Z,16.35
2023-03-21T10:30:32.309Z,14.35
2023-03-21T10:33:05.105Z,15.50
2023-03-21T10:35:37.316Z,14.93
2023-03-21T10:38:05.435Z,25.10
2023-03-21T10:40:34.212Z,18.20
2023-03-21T10:43:19.021Z,23.13
2023-03-21T10:45:48.896Z,15.73
2023-03-21T10:48:15.558Z,17.67
2023-03-21T10:50:43.109Z,22.30
2023-03-21T10:53:17.388Z,13.30
2023-03-21T10:55:46.704Z,18.08
2023-03-21T10:58:25.091Z,17.87
2023-03-21T11:00:57.278Z,28.27
2023-03-21T11:03:23.904Z,29.23
2023-03-21T11:05:55.388Z,14.05
2023-03-21T11:08:21.920Z,11.70
2023-03-21T11:10:54.767Z,29.37
2023-03-21T11:13:26.803Z,25.00
2023-03-21T11:15:55.614Z,40.30
2023-03-21T11:18:23.629Z,22.85
2023-03-21T11:21:03.067Z,59.78
2023-03-21T11:23:30.788Z,14.63
2023-03-21T11:25:59.169Z,25.00
2023-03-21T11:28:33.493Z,28.70
2023-03-21T11:31:03.135Z,26.08
2023-03-21T11:33:38.583Z,25.00
2023-03-21T11:36:25.155Z,22.53
2023-03-21T11:38:53.213Z,15.23
2023-03-21T11:41:24.333Z,20.45
2023-03-21T11:43:52.031Z,14.75
2023-03-21T11:46:22.809Z,13.70
2023-03-21T11:48:49.340Z,28.53
2023-03-21T11:51:35.293Z,17.23
2023-03-21T11:54:11.310Z,48.67
2023-03-21T11:56:40.700Z,16.00
2023-03-21T11:59:16.254Z,24.85
2023-03-21T12:01:42.779Z,16.93
2023-03-21T12:04:12.190Z,16.92
2023-03-21T12:06:48.551Z,23.63
2023-03-21T12:09:18.793Z,27.13
2023-03-21T12:12:04.306Z,36.53
2023-03-21T12:14:37.083Z,14.60
2023-03-21T12:17:25.834Z,12.70
2023-03-21T12:19:52.427Z,17.58
2023-03-21T12:22:18.937Z,17.92
2023-03-21T12:24:55.419Z,15.77
2023-03-21T12:27:25.045Z,13.80
2023-03-21T12:29:57.830Z,25.80
2023-03-21T12:32:27.202Z,19.10
2023-03-21T12:34:56.618Z,20.45
2023-03-21T12:37:33.584Z,20.23
2023-03-21T12:40:10.071Z,20.23
2023-03-21T12:42:39.628Z,19.13
2023-03-21T12:45:18.004Z,16.77
2023-03-21T12:47:48.873Z,13.13
2023-03-21T12:50:21.448Z,13.68
2023-03-21T12:52:50.005Z,16.77
2023-03-21T12:55:16.708Z,15.10
2023-03-21T12:57:57.043Z,16.77
2023-03-21T13:00:32.425Z,17.85
2023-03-21T13:03:00.634Z,15.60
2023-03-21T13:05:36.026Z,19.97
2023-03-21T13:08:24.364Z,14.43
2023-03-21T13:10:51.004Z,19.88
2023-03-21T13:13:46.931Z,14.35
2023-03-21T13:16:31.730Z,21.17
2023-03-21T13:19:10.200Z,20.33
2023-03-21T13:21:41.491Z,13.80
2023-03-21T13:24:31.152Z,21.27
2023-03-21T13:27:16.502Z,20.33
2023-03-21T13:29:47.525Z,16.08
2023-03-21T13:32:17.013Z,12.73
2023-03-21T13:34:44.679Z,19.42
2023-03-21T13:37:15.712Z,13.23
2023-03-21T13:39:46.537Z,16.27
2023-03-21T13:42:23.112Z,20.65
2023-03-21T13:44:52.670Z,17.63
2023-03-21T13:47:37.586Z,21.02
2023-03-21T13:50:16.583Z,17.15
2023-03-21T13:52:43.109Z,17.85
2023-03-21T13:55:20.129Z,13.38
2023-03-21T13:57:47.077Z,12.80
2023-03-21T14:00:16.246Z,15.98
2023-03-21T14:03:03.776Z,17.45
2023-03-21T14:05:30.430Z,17.80
2023-03-21T14:08:06.039Z,19.85
2023-03-21T14:10:42.441Z,13.03
2023-03-21T14:13:10.852Z,17.10
2023-03-21T14:15:43.736Z,16.15
2023-03-21T14:18:27.906Z,18.27
2023-03-21T14:21:02.321Z,19.45
2023-03-21T14:23:30.010Z,12.47
2023-03-21T14:25:56.545Z,27.95
2023-03-21T14:28:25.350Z,15.68
2023-03-21T14:30:56.183Z,18.60
2023-03-21T14:33:27.634Z,12.90
2023-03-21T14:35:57.174Z,14.13
2023-03-21T14:38:24.804Z,15.23
2023-03-21T14:40:53.507Z,11.75
2023-03-21T14:43:21.038Z,10.40
2023-03-21T14:45:48.010Z,14.10
2023-03-21T14:48:16.400Z,10.60
2023-03-21T14:50:46.286Z,18.05
2023-03-21T14:53:18.836Z,10.95
2023-03-21T14:55:46.945Z,14.32
2023-03-21T14:58:15.998Z,16.50
2023-03-21T15:00:42.526Z,24.07
2023-03-21T15:03:11.800Z,19.73
2023-03-21T15:05:39.028Z,26.35
2023-03-21T15:08:11.784Z,22.13
2023-03-21T15:10:38.737Z,17.52
2023-03-21T15:13:16.253Z,33.10
2023-03-21T15:15:43.203Z,15.15
2023-03-21T15:18:13.301Z,17.35
2023-03-21T15:20:40.011Z,37.38
2023-03-21T15:23:14.863Z,42.90
2023-03-21T15:25:42.112Z,48.43
2023-03-21T15:28:11.594Z,34.33
2023-03-21T15:30:38.145Z,19.95
2023-03-21T15:33:10.712Z,25.33
2023-03-21T15:35:39.732Z,15.07
2023-03-21T15:38:06.799Z,17.47
2023-03-21T15:40:34.352Z,23.40
2023-03-21T15:43:17.350Z,18.98
2023-03-21T15:45:48.257Z,16.35
2023-03-21T15:48:15.150Z,26.85
2023-03-21T15:50:43.031Z,34.27
2023-03-21T15:53:14.970Z,18.98
2023-03-21T15:55:52.044Z,22.95
2023-03-21T15:58:23.323Z,21.63
2023-03-21T16:00:55.402Z,13.35
2023-03-21T16:03:22.372Z,20.57
2023-03-21T16:06:10.643Z,19.90
2023-03-21T16:08:38.382Z,13.60
2023-03-21T16:11:28.476Z,12.73
2023-03-21T16:13:55.777Z,17.58
2023-03-21T16:16:23.701Z,26.97
2023-03-21T16:18:50.641Z,14.73
2023-03-21T16:21:18.444Z,14.40
2023-03-21T16:23:45.603Z,19.85
2023-03-21T16:26:13.877Z,15.38
2023-03-21T16:28:40.571Z,24.93
2023-03-21T16:31:09.364Z,12.32
2023-03-21T16:33:35.868Z,19.08
2023-03-21T16:36:02.973Z,13.63
2023-03-21T16:38:29.785Z,16.38
2023-03-21T16:40:57.660Z,11.77
2023-03-21T16:43:24.200Z,14.70
2023-03-21T16:45:50.875Z,13.38
2023-03-21T16:48:18.010Z,17.10
2023-03-21T16:50:46.905Z,12.40
2023-03-21T16:53:13.370Z,12.57
2023-03-21T16:55:39.975Z,14.75
2023-03-21T16:58:06.626Z,11.23
2023-03-21T17:00:33.364Z,13.50
2023-03-21T17:03:01.564Z,18.98
2023-03-21T17:05:30.642Z,11.77
2023-03-21T17:07:57.551Z,11.77
2023-03-21T17:10:25.873Z,15.00
2023-03-21T17:12:52.744Z,12.38
2023-03-21T17:15:19.688Z,13.75
2023-03-21T17:17:46.546Z,9.80
2023-03-21T17:20:16.037Z,10.18
2023-03-21T17:22:42.475Z,22.23
2023-03-21T17:25:09.028Z,15.48
2023-03-21T17:27:35.989Z,15.75
2023-03-21T17:30:02.730Z,14.50
2023-03-21T17:32:29.292Z,15.75
2023-03-21T17:34:56.067Z,15.50
2023-03-21T17:37:26.166Z,18.80
2023-03-21T17:39:52.776Z,14.90
2023-03-21T17:42:20.618Z,16.73
2023-03-21T17:44:47.062Z,18.45
2023-03-21T17:47:13.503Z,17.65
2023-03-21T17:49:40.011Z,19.70
2023-03-21T17:52:06.488Z,14.45
2023-03-21T17:54:33.411Z,14.70
2023-03-21T17:57:00.087Z,16.27
2023-03-21T17:59:26.553Z,12.93
2023-03-21T18:01:53.180Z,19.08
2023-03-21T18:04:19.928Z,27.30
2023-03-21T18:06:47.136Z,27.60
2023-03-21T18:09:13.722Z,17.67
2023-03-21T18:11:40.247Z,15.35
2023-03-21T18:14:15.805Z,16.42
2023-03-21T18:16:43.620Z,20.55
2023-03-21T18:19:11.055Z,15.97
2023-03-21T18:21:40.586Z,16.63
2023-03-21T18:24:07.530Z,15.35
2023-03-21T18:26:34.038Z,16.73
2023-03-21T18:32:02.591Z,20.80
2023-03-21T18:34:32.266Z,15.07
2023-03-21T18:36:58.754Z,22.85
2023-03-21T18:39:25.577Z,12.82
2023-03-21T18:41:54.366Z,13.75
2023-03-21T18:44:25.687Z,29.43
2023-03-21T18:46:52.507Z,19.40
2023-03-21T18:52:09.343Z,16.73
2023-03-21T18:54:36.796Z,19.63
2023-03-21T18:59:50.758Z,20.08
2023-03-21T19:02:17.620Z,22.58
2023-03-21T19:04:44.094Z,20.63
2023-03-21T19:07:10.827Z,17.92
2023-03-21T19:10:15.429Z,24.93
2023-03-21T19:12:24.952Z,23.48
2023-03-21T19:14:51.469Z,47.53
2023-03-21T19:20:05.714Z,18.15
2023-03-21T19:22:32.213Z,20.03
2023-03-21T19:24:58.747Z,17.90
2023-03-21T19:27:25.298Z,24.17
2023-03-21T19:30:08.380Z,20.55
2023-03-21T19:32:38.421Z,21.08
2023-03-21T19:35:05.337Z,22.47
2023-03-21T19:37:35.259Z,24.35
2023-03-21T19:40:02.297Z,31.15
2023-03-21T19:42:30.777Z,28.52
2023-03-21T19:44:57.489Z,26.63
2023-03-21T19:47:24.055Z,25.77
2023-03-21T19:52:40.660Z,20.83
2023-03-21T19:55:07.548Z,18.30
2023-03-21T19:57:35.063Z,23.00
2023-03-21T20:00:01.838Z,23.27
2023-03-21T20:02:35.593Z,23.02
2023-03-21T20:05:02.819Z,23.27
2023-03-21T20:07:31.341Z,28.40
2023-03-21T20:09:57.907Z,23.42
2023-03-21T20:12:24.422Z,14.70
2023-03-21T20:14:56.030Z,20.48
2023-03-21T20:17:28.122Z,18.30
2023-03-21T20:19:58.036Z,15.35
2023-03-21T20:22:43.665Z,24.83
2023-03-21T20:25:11.713Z,19.80
2023-03-21T20:27:39.284Z,16.58
2023-03-21T20:30:10.734Z,10.30
2023-03-21T20:32:38.161Z,13.23
2023-03-21T20:35:19.254Z,15.75
2023-03-21T20:37:52.928Z,14.70
2023-03-21T20:40:20.459Z,9.32
2023-03-21T20:42:48.705Z,10.18
2023-03-21T20:45:16.509Z,10.50
2023-03-21T20:47:43.431Z,13.20
2023-03-21T20:50:11.699Z,12.93
2023-03-21T20:53:07.962Z,14.13
2023-03-21T20:55:26.099Z,15.70
2023-03-21T20:57:54.837Z,12.32
2023-03-21T21:00:22.442Z,13.70
2023-03-21T21:02:49.764Z,67.77
2023-03-21T21:05:28.715Z,19.33
2023-03-21T21:07:56.604Z,21.05
2023-03-21T21:10:23.321Z,9.57
2023-03-21T21:12:50.001Z,13.98
2023-03-21T21:15:17.448Z,13.93
2023-03-21T21:20:33.835Z,26.65
2023-03-21T21:23:00.975Z,6.43
2023-03-21T21:25:29.211Z,15.07
2023-03-21T21:27:56.316Z,10.83
2023-03-21T21:30:23.072Z,15.13
2023-03-21T21:32:49.748Z,14.27
2023-03-21T21:35:17.971Z,14.93
2023-03-21T21:37:44.551Z,8.48
2023-03-21T21:40:14.020Z,19.53
2023-03-21T21:42:41.577Z,17.25
2023-03-21T21:45:09.554Z,18.63
2023-03-21T21:47:36.169Z,17.35
2023-03-21T21:50:02.777Z,14.40
2023-03-21T21:52:29.266Z,12.73
2023-03-21T21:54:55.803Z,12.15
2023-03-21T21:57:22.897Z,10.13
2023-03-21T21:59:54.156Z,12.27
2023-03-21T22:02:23.789Z,8.70
2023-03-21T22:04:51.556Z,15.70
2023-03-21T22:07:18.090Z,10.80
2023-03-21T22:09:44.949Z,11.50
2023-03-21T22:12:11.490Z,19.75
2023-03-21T22:14:38.100Z,10.75
2023-03-21T22:17:07.385Z,14.27
2023-03-21T22:19:34.095Z,13.13
2023-03-21T22:22:00.644Z,13.02
2023-03-21T22:24:27.413Z,9.75
2023-03-21T22:26:58.188Z,8.20
2023-03-21T22:29:28.469Z,11.80
2023-03-21T22:31:55.200Z,14.88
2023-03-21T22:34:22.144Z,10.05
2023-03-21T22:36:50.274Z,9.75
2023-03-21T22:39:18.022Z,19.00
2023-03-21T22:41:44.687Z,10.13
2023-03-21T22:44:11.270Z,8.13
2023-03-21T22:46:37.737Z,11.93
2023-03-21T22:49:04.471Z,14.10
2023-03-21T22:51:31.120Z,10.80
2023-03-21T22:53:57.641Z,15.63
2023-03-21T22:56:24.109Z,11.52
2023-03-21T22:58:50.585Z,15.20
2023-03-21T23:01:17.047Z,14.82
2023-03-21T23:03:43.598Z,16.05
2023-03-21T23:06:10.344Z,13.65
2023-03-21T23:08:36.925Z,10.57
2023-03-21T23:11:09.359Z,11.45
2023-03-21T23:13:36.813Z,8.68
2023-03-21T23:16:06.988Z,13.57
2023-03-21T23:18:34.039Z,9.63
2023-03-21T23:21:00.531Z,14.70
2023-03-21T23:23:27.133Z,10.13
2023-03-21T23:25:53.722Z,10.35
2023-03-21T23:28:20.275Z,12.30
2023-03-21T23:30:46.909Z,8.65
2023-03-21T23:33:13.482Z,8.20
2023-03-21T23:35:40.111Z,6.88
2023-03-21T23:38:06.945Z,11.38
2023-03-21T23:40:33.497Z,13.27
2023-03-21T23:43:00.091Z,9.07
2023-03-21T23:45:27.565Z,9.10
2023-03-21T23:47:54.114Z,7.40
2023-03-21T23:50:20.717Z,8.00
2023-03-21T23:52:47.489Z,13.10
2023-03-21T23:55:14.028Z,12.70
2023-03-21T23:57:41.925Z,15.70
